Time;durP1;ratioP1;P1;durP2;ratioP2;P2;SDS_P1;SDS_P2;PMS_P1;PMS_P2;Temp;Humidity;BMP_temperature;BMP_pressure;BME280_temperature;BME280_humidity;BME280_pressure;Samples;Min_cycle;Max_cycle;Signal;HPM_P1;HPM_P2
2022/10/10 00:01:24;;;;;;;7.50;1.95;;;;;;;9.51;86.13;99639.41;4485935;31;20160;-74
2022/10/10 00:03:52;;;;;;;2.90;1.65;;;;;;;9.50;86.18;99645.56;4485994;31;20084;-74
2022/10/10 00:06:20;;;;;;;2.67;1.60;;;;;;;9.53;85.87;99642.75;4486095;31;20080;-74
2022/10/10 00:08:47;;;;;;;2.08;1.50;;;;;;;9.49;86.17;99638.66;4485695;31;20177;-74
2022/10/10 00:11:17;;;;;;;2.25;1.50;;;;;;;9.45;85.55;99630.22;4485868;31;20576;-74
2022/10/10 00:13:45;;;;;;;3.58;1.58;;;;;;;9.47;85.32;99635.34;4485877;31;20487;-74
2022/10/10 00:16:12;;;;;;;3.83;1.50;;;;;;;9.35;85.34;99634.41;4485684;31;20518;-74
2022/10/10 00:18:41;;;;;;;4.35;1.58;;;;;;;9.33;85.77;99633.69;4485720;31;20160;-74
2022/10/10 00:21:08;;;;;;;3.90;1.70;;;;;;;9.33;85.68;99626.69;4485650;31;20130;-74
2022/10/10 00:23:36;;;;;;;3.10;1.65;;;;;;;9.32;84.90;99632.84;4485568;31;20084;-74
2022/10/10 00:26:04;;;;;;;2.50;1.40;;;;;;;9.31;84.91;99627.72;4485553;31;20201;-74
2022/10/10 00:28:37;;;;;;;1.87;1.40;;;;;;;9.31;83.70;99631.19;4485836;31;20134;-74
2022/10/10 00:31:07;;;;;;;5.43;1.60;;;;;;;9.33;83.52;99629.28;4485699;31;20427;-74
2022/10/10 00:33:35;;;;;;;3.15;1.45;;;;;;;9.30;83.19;99628.69;4485687;31;20088;-74
2022/10/10 00:36:02;;;;;;;6.50;1.52;;;;;;;9.32;83.42;99622.38;4485514;31;20130;-74
2022/10/10 00:38:31;;;;;;;1.83;1.17;;;;;;;9.29;82.72;99614.75;4485660;31;20139;-74
2022/10/10 00:40:58;;;;;;;5.40;1.62;;;;;;;9.30;82.57;99618.22;4485716;31;20092;-74
2022/10/10 00:43:26;;;;;;;1.87;1.20;;;;;;;9.31;81.91;99620.72;4485612;31;20100;-74
2022/10/10 00:45:54;;;;;;;4.28;1.40;;;;;;;9.23;81.71;99613.44;4485529;31;20088;-74
2022/10/10 00:48:38;;;;;;;4.30;1.65;;;;;;;9.23;81.38;99607.34;4485500;31;20525;-74
2022/10/10 00:51:11;;;;;;;2.60;1.45;;;;;;;9.23;82.00;99617.81;4485613;31;20091;-74
2022/10/10 00:53:42;;;;;;;3.00;1.50;;;;;;;9.17;81.49;99602.53;4485602;31;20497;-74
2022/10/10 00:56:11;;;;;;;1.80;1.05;;;;;;;9.19;80.45;99598.88;4483780;32;20144;-74
2022/10/10 00:58:44;;;;;;;3.03;1.20;;;;;;;9.21;80.26;99604.00;4485625;31;20108;-74
2022/10/10 01:01:11;;;;;;;1.83;1.00;;;;;;;9.20;79.70;99602.34;4484228;32;20080;-74
2022/10/10 01:03:38;;;;;;;2.37;0.95;;;;;;;9.23;79.40;99587.28;4485426;31;20084;-74
2022/10/10 01:06:05;;;;;;;3.42;1.17;;;;;;;9.21;78.65;99590.94;4485404;31;20100;-74
2022/10/10 01:08:33;;;;;;;5.22;1.25;;;;;;;9.16;79.44;99590.41;4485265;31;20134;-74
2022/10/10 01:11:26;;;;;;;7.93;1.52;;;;;;;9.21;78.31;99588.31;4484273;32;20128;-74
2022/10/10 01:14:15;;;;;;;2.62;1.05;;;;;;;9.24;77.80;99594.16;4485480;31;20167;-74
2022/10/10 01:16:52;;;;;;;3.78;1.17;;;;;;;9.25;78.05;99592.41;4485429;31;20088;-74
2022/10/10 01:19:22;;;;;;;4.47;1.30;;;;;;;9.20;78.18;99586.66;4485476;31;20810;-74
2022/10/10 01:21:56;;;;;;;3.42;1.45;;;;;;;9.22;78.12;99587.41;4485249;31;20167;-74
2022/10/10 01:24:55;;;;;;;1.58;0.95;;;;;;;9.23;77.08;99591.66;4484097;32;20139;-74
2022/10/10 01:27:29;;;;;;;1.62;0.73;;;;;;;9.27;76.30;99590.50;4420656;32;20117;-74
2022/10/10 01:30:07;;;;;;;4.50;1.10;;;;;;;9.33;76.63;99576.16;4408372;32;20169;-74
2022/10/10 01:32:45;;;;;;;2.17;1.23;;;;;;;9.30;77.20;99586.84;4408123;32;20132;-74
2022/10/10 01:35:40;;;;;;;3.20;1.17;;;;;;;9.25;76.54;99584.56;4408111;32;20129;-74
2022/10/10 01:38:21;;;;;;;2.05;1.50;;;;;;;9.20;77.96;99577.00;4420592;32;20113;-74
2022/10/10 01:40:57;;;;;;;5.87;1.10;;;;;;;9.22;77.25;99580.38;4420762;32;20170;-74
2022/10/10 01:43:25;;;;;;;5.10;1.20;;;;;;;9.20;77.92;99579.63;4420549;32;20474;-74
2022/10/10 01:45:53;;;;;;;1.60;1.10;;;;;;;9.22;78.02;99572.53;4420516;32;20113;-74
2022/10/10 01:48:27;;;;;;;1.27;0.90;;;;;;;9.20;77.71;99581.41;4420359;32;20106;-74
2022/10/10 01:51:09;;;;;;;2.65;1.12;;;;;;;9.22;78.59;99580.38;4420799;32;20117;-74
2022/10/10 01:54:03;;;;;;;2.87;1.17;;;;;;;9.11;78.58;99577.66;4420405;32;20104;-74
2022/10/10 01:56:51;;;;;;;2.58;1.10;;;;;;;9.16;78.79;99574.72;4420471;32;20163;-74
2022/10/10 01:59:40;;;;;;;3.20;1.25;;;;;;;9.15;78.10;99584.34;4420688;32;20582;-74
2022/10/10 02:02:41;;;;;;;2.90;1.12;;;;;;;9.17;78.58;99587.69;4420592;32;20207;-74
2022/10/10 02:05:18;;;;;;;2.22;1.30;;;;;;;9.17;78.49;99576.41;4478009;32;20122;-74
2022/10/10 02:07:59;;;;;;;3.45;1.35;;;;;;;9.13;78.39;99577.56;4483884;31;20496;-73
2022/10/10 02:10:30;;;;;;;3.87;1.35;;;;;;;9.11;79.17;99574.22;4483793;32;20113;-74
2022/10/10 02:12:59;;;;;;;3.10;1.40;;;;;;;9.04;79.53;99576.44;4483589;32;20104;-74
2022/10/10 02:15:35;;;;;;;2.30;1.42;;;;;;;9.01;79.82;99572.25;4484904;31;20638;-74
2022/10/10 02:18:04;;;;;;;2.62;1.30;;;;;;;9.01;79.77;99581.87;4483409;32;20141;-74
2022/10/10 02:20:32;;;;;;;1.80;1.37;;;;;;;9.11;79.30;99576.84;4483562;32;20116;-74
2022/10/10 02:22:59;;;;;;;3.75;1.67;;;;;;;9.06;79.93;99579.78;4484820;31;20108;-74
2022/10/10 02:25:28;;;;;;;4.70;1.30;;;;;;;8.97;80.07;99569.97;4483374;32;20080;-74
2022/10/10 02:28:07;;;;;;;4.60;1.10;;;;;;;8.92;80.23;99577.28;4483458;32;20095;-74
2022/10/10 02:30:37;;;;;;;1.65;1.20;;;;;;;9.00;79.54;99583.66;4484593;31;20100;-74
2022/10/10 02:33:05;;;;;;;5.18;1.15;;;;;;;8.97;79.94;99576.03;4484652;31;20165;-74
2022/10/10 02:35:41;;;;;;;2.53;1.30;;;;;;;8.98;80.03;99579.50;4483447;32;20495;-74
2022/10/10 02:38:11;;;;;;;4.45;1.23;;;;;;;9.00;80.34;99580.22;4483390;32;20108;-74
2022/10/10 02:40:39;;;;;;;6.07;1.85;;;;;;;8.97;80.42;99577.81;4483456;32;20160;-74
2022/10/10 02:43:07;;;;;;;6.03;1.10;;;;;;;8.94;79.81;99581.47;4484489;31;20092;-74
2022/10/10 02:45:34;;;;;;;2.37;1.17;;;;;;;8.97;79.84;99577.81;4483214;32;20120;-74
2022/10/10 02:48:02;;;;;;;4.32;1.35;;;;;;;8.94;80.14;99575.41;4482896;32;20100;-74
2022/10/10 02:50:30;;;;;;;2.50;1.30;;;;;;;8.93;80.91;99574.56;4483099;32;20144;-74
2022/10/10 02:52:58;;;;;;;2.00;1.15;;;;;;;8.90;80.82;99576.56;4484320;31;20213;-74
2022/10/10 02:55:25;;;;;;;3.37;1.27;;;;;;;8.83;80.42;99573.53;4484164;31;20114;-74
2022/10/10 02:57:53;;;;;;;2.97;1.25;;;;;;;8.91;80.58;99576.44;4484245;31;20096;-75
2022/10/10 03:00:20;;;;;;;2.67;1.00;;;;;;;8.88;80.43;99564.41;4482848;32;20116;-74
2022/10/10 03:02:47;;;;;;;2.90;1.40;;;;;;;8.87;80.30;99569.75;4484329;31;20159;-74
2022/10/10 03:05:15;;;;;;;2.62;1.00;;;;;;;8.90;80.28;99568.72;4484240;31;20565;-74
2022/10/10 03:07:43;;;;;;;4.65;1.42;;;;;;;8.87;81.33;99564.53;4483852;31;20127;-73
2022/10/10 03:10:10;;;;;;;2.87;1.12;;;;;;;8.85;80.83;99567.25;4484423;31;20156;-74
2022/10/10 03:12:37;;;;;;;1.75;1.30;;;;;;;8.85;80.45;99569.03;4484161;31;20089;-74
2022/10/10 03:15:05;;;;;;;7.47;1.20;;;;;;;8.83;80.73;99563.91;4484121;31;20504;-74
2022/10/10 03:17:37;;;;;;;3.40;1.47;;;;;;;8.87;80.94;99567.16;4483920;31;20110;-74
2022/10/10 03:20:06;;;;;;;3.10;1.70;;;;;;;8.81;81.06;99564.97;4485771;31;20562;-74
2022/10/10 03:22:33;;;;;;;2.35;1.35;;;;;;;8.76;81.63;99567.88;4486128;31;20157;-74
2022/10/10 03:25:00;;;;;;;1.87;1.33;;;;;;;8.77;81.72;99556.50;4486149;31;20505;-74
2022/10/10 03:27:27;;;;;;;5.00;1.62;;;;;;;8.74;81.94;99566.34;4486021;31;20100;-74
2022/10/10 03:29:54;;;;;;;2.03;1.45;;;;;;;8.72;82.35;99562.97;4486136;31;20172;-74
2022/10/10 03:32:21;;;;;;;4.15;1.70;;;;;;;8.73;82.29;99560.25;4486060;32;20092;-74
2022/10/10 03:34:48;;;;;;;4.93;1.60;;;;;;;8.69;82.36;99567.50;4486190;32;20530;-74
2022/10/10 03:37:15;;;;;;;2.12;1.40;;;;;;;8.76;82.06;99561.84;4486389;31;20160;-74
2022/10/10 03:39:42;;;;;;;2.53;1.27;;;;;;;8.75;82.65;99560.16;4485915;31;20116;-74
2022/10/10 03:42:10;;;;;;;3.25;1.70;;;;;;;8.68;83.04;99564.97;4486146;31;20192;-74
2022/10/10 03:44:37;;;;;;;4.07;1.55;;;;;;;8.66;83.06;99559.87;4485859;31;20097;-74
2022/10/10 03:47:04;;;;;;;3.20;1.42;;;;;;;8.66;83.56;99557.25;4486264;31;20080;-74
2022/10/10 03:49:31;;;;;;;2.75;1.00;;;;;;;8.66;82.95;99565.09;4485844;31;20127;-74
2022/10/10 03:52:00;;;;;;;3.40;1.50;;;;;;;8.64;83.21;99559.13;4485731;31;20100;-74
2022/10/10 03:54:27;;;;;;;3.08;1.27;;;;;;;8.67;83.75;99561.50;4485937;31;20608;-74
2022/10/10 03:56:54;;;;;;;2.42;1.30;;;;;;;8.66;83.29;99557.25;4485882;31;20101;-74
2022/10/10 03:59:21;;;;;;;2.60;1.33;;;;;;;8.65;83.69;99565.19;4486018;31;20100;-74
2022/10/10 04:01:48;;;;;;;3.17;1.60;;;;;;;8.68;83.80;99565.81;4485601;31;20148;-75
2022/10/10 04:04:16;;;;;;;4.18;1.73;;;;;;;8.66;84.07;99557.25;4474402;32;20431;-74
2022/10/10 04:06:43;;;;;;;2.72;1.50;;;;;;;8.59;84.10;99556.00;4473873;32;20486;-74
2022/10/10 04:09:10;;;;;;;6.82;1.37;;;;;;;8.58;84.41;99554.31;4476659;31;20402;-75
2022/10/10 04:11:39;;;;;;;5.97;1.67;;;;;;;8.62;84.53;99555.78;4484340;32;20164;-75
2022/10/10 04:14:06;;;;;;;4.37;1.95;;;;;;;8.59;84.31;99556.00;4476325;31;20115;-74
2022/10/10 04:16:33;;;;;;;2.85;1.50;;;;;;;8.65;84.42;99554.75;4471454;32;20118;-74
2022/10/10 04:19:01;;;;;;;2.92;1.67;;;;;;;8.58;84.51;99551.69;4478374;32;20138;-75
2022/10/10 04:21:28;;;;;;;5.28;1.50;;;;;;;8.57;85.37;99555.28;4483645;31;20430;-75
2022/10/10 04:23:55;;;;;;;2.85;1.67;;;;;;;8.58;85.31;99551.69;4483857;32;20092;-74
2022/10/10 04:26:23;;;;;;;3.55;1.87;;;;;;;8.57;84.72;99555.28;4480929;31;20194;-74
2022/10/10 04:28:50;;;;;;;4.32;1.27;;;;;;;8.59;84.81;99556.00;4469626;32;20689;-74
2022/10/10 04:31:17;;;;;;;6.37;2.08;;;;;;;8.54;85.51;99550.25;4467468;32;20112;-74
2022/10/10 04:33:44;;;;;;;2.80;1.40;;;;;;;8.49;85.36;99547.09;4469718;32;20116;-74
2022/10/10 04:36:11;;;;;;;3.72;1.55;;;;;;;8.47;86.06;99551.63;4482364;32;20128;-75
2022/10/10 04:38:38;;;;;;;4.15;1.55;;;;;;;8.49;85.91;99547.97;4482755;31;20156;-74
2022/10/10 04:41:05;;;;;;;3.83;1.58;;;;;;;8.49;86.05;99553.19;4480809;31;20100;-74
2022/10/10 04:43:33;;;;;;;4.35;1.65;;;;;;;8.51;85.64;99556.53;4478474;31;20127;-74
2022/10/10 04:46:00;;;;;;;1.70;1.48;;;;;;;8.47;85.98;99552.44;4479236;32;20164;-74
2022/10/10 04:48:27;;;;;;;4.68;1.65;;;;;;;8.49;85.71;99554.94;4477080;31;20184;-74
2022/10/10 04:50:56;;;;;;;2.53;1.83;;;;;;;8.46;86.04;99552.53;4476949;32;20116;-74
2022/10/10 04:53:25;;;;;;;2.92;1.60;;;;;;;8.49;86.29;99554.94;4483422;31;20104;-74
2022/10/10 04:55:53;;;;;;;4.03;1.92;;;;;;;8.48;86.28;99554.13;4476686;32;20124;-74
2022/10/10 04:58:20;;;;;;;6.28;1.98;;;;;;;8.54;85.43;99563.31;4479088;32;20107;-75
2022/10/10 05:00:52;;;;;;;9.95;1.60;;;;;;;8.54;85.56;99568.53;4484894;31;20566;-74
2022/10/10 05:03:20;;;;;;;10.27;2.15;;;;;;;8.45;85.93;99566.56;4484962;31;20081;-74
2022/10/10 05:05:47;;;;;;;10.68;1.70;;;;;;;8.50;86.29;99567.06;4482595;31;20123;-75
2022/10/10 05:08:14;;;;;;;6.03;1.62;;;;;;;8.55;85.96;99564.97;4480261;32;20681;-74
2022/10/10 05:10:42;;;;;;;5.50;1.60;;;;;;;8.55;85.74;99559.75;4484893;31;20100;-74
2022/10/10 05:13:11;;;;;;;11.68;2.15;;;;;;;8.52;85.71;99557.34;4485332;31;20580;-74
2022/10/10 05:15:39;;;;;;;3.05;1.45;;;;;;;8.52;86.06;99566.03;4485157;31;20127;-74
2022/10/10 05:18:06;;;;;;;3.35;1.80;;;;;;;8.55;85.58;99556.31;4485169;31;20115;-74
2022/10/10 05:20:33;;;;;;;8.18;1.62;;;;;;;8.61;85.41;99561.13;4484393;31;20108;-74
2022/10/10 05:23:01;;;;;;;7.12;1.65;;;;;;;8.63;85.83;99562.69;4483899;31;20144;-74
2022/10/10 05:25:28;;;;;;;6.37;1.80;;;;;;;8.72;85.37;99560.38;4478996;31;20173;-74
2022/10/10 05:27:55;;;;;;;3.83;1.77;;;;;;;8.81;86.67;99564.97;4478686;31;20126;-74
2022/10/10 05:30:22;;;;;;;6.75;1.92;;;;;;;8.81;85.48;99564.97;4477562;32;20386;-74
2022/10/10 05:32:50;;;;;;;25.33;2.33;;;;;;;8.87;85.11;99570.62;4475896;32;20096;-74
2022/10/10 05:35:17;;;;;;;17.50;2.80;;;;;;;8.96;85.07;99563.91;4478244;32;20083;-74
2022/10/10 05:37:44;;;;;;;5.32;1.83;;;;;;;8.99;84.11;99568.06;4481529;31;20566;-74
2022/10/10 05:40:11;;;;;;;15.18;2.42;;;;;;;9.03;83.80;99570.38;4481537;31;20437;-74
2022/10/10 05:42:38;;;;;;;25.02;2.20;;;;;;;9.08;83.49;99571.81;4476496;31;20096;-74
2022/10/10 05:45:06;;;;;;;18.60;2.42;;;;;;;9.13;82.99;99574.94;4484380;31;20084;-73
2022/10/10 05:47:33;;;;;;;35.90;3.65;;;;;;;9.18;82.51;99578.09;4484720;31;20109;-74
2022/10/10 05:50:00;;;;;;;15.82;3.15;;;;;;;9.22;82.36;99571.72;4483105;31;20096;-75
2022/10/10 05:52:28;;;;;;;15.95;2.80;;;;;;;9.32;82.73;99570.09;4484716;31;20122;-74
2022/10/10 05:54:55;;;;;;;18.48;2.55;;;;;;;9.36;82.54;99568.94;4482392;32;20173;-74
2022/10/10 05:57:22;;;;;;;5.53;2.05;;;;;;;9.40;82.38;99577.38;4483779;31;20126;-73
2022/10/10 05:59:49;;;;;;;7.05;1.87;;;;;;;9.53;82.03;99579.97;4484099;31;20160;-74
2022/10/10 06:02:16;;;;;;;9.68;1.95;;;;;;;9.64;82.03;99569.53;4484202;31;20151;-74
2022/10/10 06:04:44;;;;;;;7.30;2.20;;;;;;;9.62;80.77;99579.28;4468112;31;20152;-75
2022/10/10 06:07:11;;;;;;;8.98;2.20;;;;;;;9.71;81.19;99572.56;4470429;31;158401;-74
2022/10/10 06:09:38;;;;;;;3.92;1.80;;;;;;;9.77;80.43;99583.41;4475244;32;20112;-74
2022/10/10 06:12:05;;;;;;;5.22;2.33;;;;;;;9.74;80.38;99586.25;4480168;31;20109;-75
2022/10/10 06:14:32;;;;;;;6.10;2.05;;;;;;;9.82;80.66;99583.06;4476401;32;20085;-74
2022/10/10 06:16:59;;;;;;;11.85;2.28;;;;;;;9.89;79.86;99583.47;4484531;31;20108;-74
2022/10/10 06:19:26;;;;;;;4.30;1.90;;;;;;;10.03;80.21;99574.59;4483012;31;20539;-75
2022/10/10 06:21:53;;;;;;;5.00;1.83;;;;;;;10.03;78.51;99571.97;4469343;32;20131;-76
2022/10/10 06:24:20;;;;;;;1.73;1.30;;;;;;;9.95;79.73;99583.84;4475234;32;20556;-76
2022/10/10 06:26:48;;;;;;;6.25;2.03;;;;;;;10.06;78.30;99569.97;4476388;31;20560;-73
2022/10/10 06:29:15;;;;;;;9.00;1.95;;;;;;;10.17;79.26;99577.00;4472304;32;20084;-73
2022/10/10 06:31:42;;;;;;;9.55;1.62;;;;;;;10.09;77.87;99572.34;4477011;31;20096;-75
2022/10/10 06:34:09;;;;;;;5.15;1.37;;;;;;;10.09;78.00;99577.59;4473660;31;20407;-74
2022/10/10 06:36:36;;;;;;;5.55;1.92;;;;;;;10.08;78.89;99573.31;4473535;32;20100;-74
2022/10/10 06:39:03;;;;;;;3.42;1.73;;;;;;;10.15;79.27;99583.34;4483655;31;20088;-74
2022/10/10 06:41:31;;;;;;;3.45;1.70;;;;;;;10.07;77.92;99578.66;4472418;31;20204;-73
2022/10/10 06:43:58;;;;;;;3.83;1.77;;;;;;;10.16;77.57;99580.59;4478389;31;20101;-73
2022/10/10 06:46:25;;;;;;;4.60;1.67;;;;;;;10.23;78.04;99570.50;4478888;31;22244;-72
2022/10/10 06:48:52;;;;;;;4.10;2.62;;;;;;;10.23;78.14;99570.50;4482510;31;20115;-73
2022/10/10 06:51:19;;;;;;;3.12;1.77;;;;;;;10.30;78.50;99574.31;4477419;31;20122;-73
2022/10/10 06:53:46;;;;;;;5.97;2.00;;;;;;;10.49;79.23;99576.41;4474855;31;20214;-73
2022/10/10 06:56:20;;;;;;;7.12;1.65;;;;;;;10.57;78.94;99573.22;4471518;31;20107;-72
2022/10/10 06:58:53;;;;;;;2.60;1.50;;;;;;;10.58;76.73;99575.72;4472986;32;20088;-74
2022/10/10 07:01:22;;;;;;;4.65;1.65;;;;;;;10.55;76.18;99565.47;4469786;32;20426;-75
2022/10/10 07:03:50;;;;;;;3.15;1.35;;;;;;;10.58;76.71;99573.09;4473297;32;20184;-76
2022/10/10 07:06:17;;;;;;;2.58;1.35;;;;;;;10.79;77.53;99575.00;4477906;32;20162;-74
2022/10/10 07:08:44;;;;;;;3.03;1.50;;;;;;;10.74;75.67;99570.12;4481721;32;20267;-73
2022/10/10 07:11:11;;;;;;;4.62;1.75;;;;;;;10.75;74.92;99571.81;4472642;31;20156;-74
2022/10/10 07:13:39;;;;;;;10.52;1.75;;;;;;;10.90;76.51;99576.78;4468668;31;20607;-74
2022/10/10 07:16:06;;;;;;;21.55;3.95;;;;;;;10.89;74.00;99570.72;4474433;31;20112;-75
2022/10/10 07:18:35;;;;;;;3.70;1.75;;;;;;;10.95;74.48;99577.28;4474376;31;20138;-75
2022/10/10 07:21:03;;;;;;;2.87;1.50;;;;;;;10.97;73.76;99565.72;4477484;32;20096;-76
2022/10/10 07:23:31;;;;;;;5.45;1.58;;;;;;;11.08;73.61;99575.38;4480956;31;20209;-79
2022/10/10 07:26:01;;;;;;;5.05;1.40;;;;;;;11.05;72.67;99586.09;4482739;31;20099;-77
2022/10/10 07:28:29;;;;;;;3.37;1.60;;;;;;;11.12;73.60;99576.78;4466989;32;20138;-75
2022/10/10 07:31:04;;;;;;;4.35;1.65;;;;;;;11.14;73.13;99579.28;4469944;32;20105;-73
2022/10/10 07:33:33;;;;;;;4.93;1.85;;;;;;;11.36;74.06;99575.81;4473787;32;20134;-73
2022/10/10 07:36:01;;;;;;;6.90;2.05;;;;;;;11.40;72.42;99576.41;4476955;31;20104;-73
2022/10/10 07:38:27;;;;;;;3.70;1.50;;;;;;;11.44;72.94;99570.78;4485698;31;20100;-73
2022/10/10 07:40:54;;;;;;;2.80;1.80;;;;;;;11.48;72.98;99582.69;4480126;31;21121;-74
2022/10/10 07:43:22;;;;;;;4.28;1.90;;;;;;;11.55;72.87;99572.53;4481448;31;20158;-73
2022/10/10 07:45:49;;;;;;;11.95;2.65;;;;;;;11.61;73.19;99574.69;4484291;32;20122;-72
2022/10/10 07:48:16;;;;;;;9.27;1.80;;;;;;;11.78;72.34;99575.09;4476799;31;20101;-72
2022/10/10 07:50:44;;;;;;;6.47;1.92;;;;;;;11.67;70.57;99570.72;4476590;31;20142;-72
2022/10/10 07:53:12;;;;;;;5.00;1.70;;;;;;;11.60;72.09;99572.19;4483274;31;20140;-73
2022/10/10 07:55:40;;;;;;;6.32;2.12;;;;;;;11.61;72.30;99579.09;4481582;32;20164;-72
2022/10/10 07:58:11;;;;;;;6.47;1.92;;;;;;;11.70;72.62;99573.09;4479105;31;20167;-72
2022/10/10 08:00:41;;;;;;;3.58;1.83;;;;;;;11.89;73.56;99572.44;4476203;31;20125;-73
2022/10/10 08:03:09;;;;;;;7.80;2.22;;;;;;;11.94;72.33;99579.97;4479720;31;20131;-72
2022/10/10 08:05:40;;;;;;;22.17;2.28;;;;;;;11.98;70.44;99568.25;4475210;31;20108;-73
2022/10/10 08:08:11;;;;;;;10.30;2.08;;;;;;;12.01;72.15;99573.25;4475236;32;20490;-73
2022/10/10 08:10:42;;;;;;;8.73;2.42;;;;;;;12.04;71.27;99563.31;4496945;31;20449;-72
2022/10/10 08:13:09;;;;;;;6.62;2.30;;;;;;;12.05;71.33;99575.50;4488162;31;20088;-71
2022/10/10 08:15:38;;;;;;;8.75;2.20;;;;;;;12.13;72.00;99580.13;4470111;31;20194;-71
2022/10/10 08:18:05;;;;;;;3.30;2.53;;;;;;;12.17;71.73;99570.19;4478843;31;20485;-72
2022/10/10 08:20:32;;;;;;;3.12;1.90;;;;;;;12.22;71.59;99574.09;4477934;31;20097;-71
2022/10/10 08:23:00;;;;;;;7.40;1.87;;;;;;;12.39;71.58;99574.50;4471311;32;20135;-71
2022/10/10 08:25:27;;;;;;;6.95;2.10;;;;;;;12.52;70.52;99575.13;4469659;32;20139;-71
2022/10/10 08:27:54;;;;;;;7.30;1.62;;;;;;;12.66;68.81;99567.88;4478817;32;20478;-71
2022/10/10 08:30:21;;;;;;;6.00;1.75;;;;;;;12.68;69.51;99573.81;4471622;32;20097;-71
2022/10/10 08:32:48;;;;;;;4.53;1.48;;;;;;;12.87;68.39;99566.03;4483633;31;20464;-71
2022/10/10 08:35:16;;;;;;;3.92;1.60;;;;;;;13.00;65.83;99562.31;4482382;31;20104;-72
2022/10/10 08:37:43;;;;;;;6.40;1.95;;;;;;;12.88;66.62;99570.28;4472103;32;20155;-72
2022/10/10 08:40:15;;;;;;;5.45;1.37;;;;;;;12.94;65.46;99567.16;4473653;32;20123;-71
2022/10/10 08:42:47;;;;;;;2.47;1.30;;;;;;;12.95;65.48;99560.09;4467065;32;20102;-71
2022/10/10 08:45:22;;;;;;;4.72;1.70;;;;;;;12.94;63.99;99567.16;4467572;32;20115;-71
2022/10/10 08:47:57;;;;;;;17.30;2.20;;;;;;;12.91;64.92;99553.44;4472102;32;20089;-72
2022/10/10 08:50:30;;;;;;;4.43;1.50;;;;;;;12.88;64.88;99557.16;4473497;32;20123;-72
2022/10/10 08:53:20;;;;;;;3.40;1.50;;;;;;;13.19;65.38;99556.31;4474377;32;20092;-72
2022/10/10 08:55:48;;;;;;;2.42;1.30;;;;;;;13.29;63.72;99551.87;4474152;31;20174;-72
2022/10/10 08:58:22;;;;;;;6.65;1.17;;;;;;;13.36;62.12;99549.59;4483893;31;20135;-72
2022/10/10 09:00:59;;;;;;;5.12;1.52;;;;;;;13.42;63.24;99552.50;4467036;32;20115;-71
2022/10/10 09:03:29;;;;;;;4.10;1.40;;;;;;;13.63;63.22;99549.75;4480085;32;20092;-71
2022/10/10 09:06:35;;;;;;;3.83;1.48;;;;;;;13.57;61.70;99544.22;4484046;31;20135;-72
2022/10/10 09:09:17;;;;;;;3.22;1.20;;;;;;;13.47;61.90;99546.81;4460129;32;20092;-72
2022/10/10 09:12:10;;;;;;;15.07;1.80;;;;;;;13.54;63.56;99555.03;4469156;32;20572;-72
2022/10/10 09:15:04;;;;;;;14.23;1.27;;;;;;;13.52;62.63;99552.53;4477251;32;20088;-72
2022/10/10 09:17:47;;;;;;;6.22;1.50;;;;;;;13.80;62.74;99550.84;4467577;32;20100;-72
2022/10/10 09:20:46;;;;;;;7.85;1.77;;;;;;;13.91;64.07;99535.87;4468818;32;20477;-72
2022/10/10 09:23:38;;;;;;;9.77;1.40;;;;;;;13.94;62.34;99541.69;4466250;32;20143;-72
2022/10/10 09:26:08;;;;;;;2.95;1.30;;;;;;;13.97;62.94;99540.59;4472881;32;20104;-72
2022/10/10 09:28:41;;;;;;;1.98;1.20;;;;;;;13.98;59.92;99540.47;4481832;31;20555;-71
2022/10/10 09:31:18;;;;;;;1.90;1.30;;;;;;;14.10;60.20;99541.16;4471925;31;20123;-71
2022/10/10 09:33:52;;;;;;;4.68;1.05;;;;;;;14.09;59.37;99544.75;4476567;32;20118;-73
2022/10/10 09:36:25;;;;;;;4.57;1.60;;;;;;;14.29;60.93;99544.72;4473960;31;20084;-73
2022/10/10 09:38:55;;;;;;;5.28;1.50;;;;;;;14.31;58.61;99548.06;4468511;32;20188;-73
2022/10/10 09:41:34;;;;;;;3.62;1.48;;;;;;;14.31;59.78;99546.25;4466143;32;20093;-74
2022/10/10 09:44:06;;;;;;;3.80;1.62;;;;;;;14.32;60.11;99541.78;4469674;31;20168;-74
2022/10/10 09:46:33;;;;;;;8.88;1.80;;;;;;;14.26;60.92;99545.00;4480033;32;20164;-74
2022/10/10 09:49:00;;;;;;;4.05;1.65;;;;;;;14.23;62.54;99543.50;4482538;32;20126;-73
2022/10/10 09:51:28;;;;;;;3.20;1.23;;;;;;;14.26;63.72;99537.94;4498998;31;20146;-73
2022/10/10 09:53:56;;;;;;;8.10;1.67;;;;;;;14.45;59.72;99549.41;4479844;31;20127;-72
2022/10/10 09:56:26;;;;;;;4.87;1.50;;;;;;;14.47;58.42;99547.44;4481224;32;20131;-73
2022/10/10 09:58:54;;;;;;;3.30;1.37;;;;;;;14.64;58.12;99538.00;4479862;32;20177;-74
2022/10/10 10:01:25;;;;;;;2.05;1.27;;;;;;;14.57;59.21;99535.06;4477422;31;20168;-71
2022/10/10 10:04:16;;;;;;;2.00;1.17;;;;;;;14.63;58.08;99534.53;4479710;32;20092;-74
2022/10/10 10:07:10;;;;;;;3.00;1.33;;;;;;;14.67;56.48;99535.91;4474302;32;20137;-75
2022/10/10 10:09:37;;;;;;;3.67;1.70;;;;;;;14.67;58.38;99538.53;4478002;32;20152;-74
2022/10/10 10:12:05;;;;;;;5.47;1.37;;;;;;;14.72;61.04;99531.03;4470809;31;20100;-72
2022/10/10 10:14:36;;;;;;;3.40;1.27;;;;;;;14.62;57.17;99534.66;4479383;32;20093;-72
2022/10/10 10:17:14;;;;;;;6.70;1.65;;;;;;;14.64;57.40;99538.84;4475449;32;20119;-72
2022/10/10 10:19:43;;;;;;;4.72;1.50;;;;;;;14.79;56.91;99533.06;4479125;32;20108;-73
2022/10/10 10:22:32;;;;;;;2.65;1.45;;;;;;;14.80;56.28;99526.84;4474598;31;20204;-73
2022/10/10 10:25:28;;;;;;;7.90;1.77;;;;;;;14.94;57.46;99528.97;4478280;31;20622;-73
2022/10/10 10:28:10;;;;;;;3.58;1.60;;;;;;;14.95;54.99;99522.72;4480458;32;20433;-73
2022/10/10 10:30:38;;;;;;;2.65;1.10;;;;;;;15.16;55.12;99526.94;4473820;31;20127;-73
2022/10/10 10:33:08;;;;;;;4.22;1.80;;;;;;;15.12;52.95;99517.66;4475109;32;20561;-72
2022/10/10 10:35:42;;;;;;;4.78;1.80;;;;;;;15.13;55.97;99519.31;4468566;32;20105;-74
2022/10/10 10:38:18;;;;;;;2.17;1.02;;;;;;;15.33;54.01;99512.09;4475722;32;20131;-73
2022/10/10 10:41:08;;;;;;;3.17;1.48;;;;;;;15.34;54.95;99509.31;4475650;32;20108;-74
2022/10/10 10:44:15;;;;;;;7.10;1.65;;;;;;;15.25;56.89;99505.75;4474593;32;20148;-73
2022/10/10 10:47:15;;;;;;;5.45;1.50;;;;;;;15.39;54.74;99500.94;4475188;31;20134;-73
2022/10/10 10:50:09;;;;;;;4.90;1.30;;;;;;;15.47;54.42;99498.34;4473128;31;20136;-73
2022/10/10 10:52:53;;;;;;;13.60;1.85;;;;;;;15.69;52.61;99493.62;4467039;32;20144;-73
2022/10/10 10:55:33;;;;;;;4.97;1.75;;;;;;;15.66;54.40;99497.37;4474597;32;20104;-73
2022/10/10 10:58:25;;;;;;;7.62;1.42;;;;;;;15.72;52.54;99486.22;4470901;32;20115;-74
2022/10/10 11:01:25;;;;;;;4.87;1.70;;;;;;;15.90;52.38;99495.97;4472596;32;20123;-73
2022/10/10 11:04:40;;;;;;;1.75;1.05;;;;;;;15.87;52.04;99489.16;4473547;32;20204;-75
2022/10/10 11:07:40;;;;;;;4.43;1.55;;;;;;;16.02;50.40;99485.97;4477384;32;20225;-74
2022/10/10 11:10:19;;;;;;;4.90;1.95;;;;;;;16.00;51.32;99483.47;4473564;32;20603;-75
2022/10/10 11:12:59;;;;;;;2.67;1.20;;;;;;;16.00;50.56;99483.47;4480661;32;20115;-73
2022/10/10 11:15:33;;;;;;;11.07;1.60;;;;;;;16.06;52.08;99488.13;4478497;31;20101;-74
2022/10/10 11:18:26;;;;;;;4.40;1.60;;;;;;;16.06;50.38;99477.56;4479774;32;20129;-74
2022/10/10 11:21:05;;;;;;;7.12;1.50;;;;;;;16.26;52.10;99472.06;4471640;32;20117;-74
2022/10/10 11:23:35;;;;;;;4.30;1.77;;;;;;;16.36;52.59;99472.78;4468426;32;20081;-74
2022/10/10 11:26:06;;;;;;;6.20;1.33;;;;;;;16.48;50.29;99465.41;4476544;31;20092;-74
2022/10/10 11:28:47;;;;;;;4.35;1.23;;;;;;;16.36;51.80;99462.22;4460007;32;20438;-74
2022/10/10 11:31:42;;;;;;;15.85;1.58;;;;;;;16.09;52.27;99461.41;4468891;32;20144;-74
2022/10/10 11:34:21;;;;;;;4.93;1.42;;;;;;;16.22;51.39;99463.62;4471613;32;20500;-74
2022/10/10 11:36:49;;;;;;;3.10;1.23;;;;;;;16.19;50.88;99452.56;4477976;32;20101;-74
2022/10/10 11:39:21;;;;;;;5.82;1.55;;;;;;;16.26;51.87;99450.91;4469785;32;20163;-75
2022/10/10 11:41:55;;;;;;;1.80;1.40;;;;;;;16.39;53.94;99446.03;4470944;31;20126;-75
2022/10/10 11:44:36;;;;;;;3.12;1.60;;;;;;;16.28;51.42;99441.84;4468659;32;20116;-73
2022/10/10 11:47:25;;;;;;;4.07;1.50;;;;;;;16.38;49.58;99443.53;4471302;32;20813;-75
2022/10/10 11:50:02;;;;;;;15.30;2.28;;;;;;;16.53;53.64;99441.97;4469100;32;20119;-75
2022/10/10 11:52:40;;;;;;;2.67;1.17;;;;;;;16.44;49.72;99443.75;4467531;32;20122;-74
2022/10/10 11:55:36;;;;;;;4.62;1.75;;;;;;;16.50;50.64;99437.00;4470904;32;20119;-74
2022/10/10 11:58:04;;;;;;;8.65;1.80;;;;;;;16.56;51.70;99430.25;4469769;32;20097;-75
2022/10/10 12:00:55;;;;;;;8.32;1.80;;;;;;;16.71;52.64;99433.94;4453209;31;20156;-75